sensor_id;sensor_type;location;lat;lon;timestamp;temperature;humidity
26821;DHT22;37186;51.394;5.454;2022-10-24T00:00:18;16.70;86.50
26821;DHT22;37186;51.394;5.454;2022-10-24T00:03:19;16.70;86.50
26821;DHT22;37186;51.394;5.454;2022-10-24T00:06:19;16.70;86.50
26821;DHT22;37186;51.394;5.454;2022-10-24T00:09:20;16.70;86.60
26821;DHT22;37186;51.394;5.454;2022-10-24T00:12:20;16.70;86.50
26821;DHT22;37186;51.394;5.454;2022-10-24T00:15:21;16.70;86.50
26821;DHT22;37186;51.394;5.454;2022-10-24T00:18:22;16.60;86.50
26821;DHT22;37186;51.394;5.454;2022-10-24T00:21:22;16.70;86.50
26821;DHT22;37186;51.394;5.454;2022-10-24T00:24:23;16.60;86.50
26821;DHT22;37186;51.394;5.454;2022-10-24T00:27:24;16.60;86.50
26821;DHT22;37186;51.394;5.454;2022-10-24T00:30:25;16.60;86.60
26821;DHT22;37186;51.394;5.454;2022-10-24T00:33:26;16.60;86.50
26821;DHT22;37186;51.394;5.454;2022-10-24T00:36:26;16.60;86.50
26821;DHT22;37186;51.394;5.454;2022-10-24T00:39:27;16.60;86.50
26821;DHT22;37186;51.394;5.454;2022-10-24T00:42:27;16.50;86.40
26821;DHT22;37186;51.394;5.454;2022-10-24T00:45:44;16.50;86.50
26821;DHT22;37186;51.394;5.454;2022-10-24T00:48:51;16.50;86.50
26821;DHT22;37186;51.394;5.454;2022-10-24T00:51:57;16.50;86.50
26821;DHT22;37186;51.394;5.454;2022-10-24T00:55:02;16.50;86.50
26821;DHT22;37186;51.394;5.454;2022-10-24T00:58:05;16.50;86.50
26821;DHT22;37186;51.394;5.454;2022-10-24T01:01:06;16.50;86.50
26821;DHT22;37186;51.394;5.454;2022-10-24T01:04:11;16.40;86.40
26821;DHT22;37186;51.394;5.454;2022-10-24T01:17:38;16.40;86.50
26821;DHT22;37186;51.394;5.454;2022-10-24T01:21:02;16.40;86.50
26821;DHT22;37186;51.394;5.454;2022-10-24T01:24:13;16.40;86.50
26821;DHT22;37186;51.394;5.454;2022-10-24T01:27:38;16.40;86.60
26821;DHT22;37186;51.394;5.454;2022-10-24T01:30:51;16.30;86.40
26821;DHT22;37186;51.394;5.454;2022-10-24T01:33:59;16.30;86.90
26821;DHT22;37186;51.394;5.454;2022-10-24T01:37:07;16.40;86.60
26821;DHT22;37186;51.394;5.454;2022-10-24T01:40:27;16.30;86.50
26821;DHT22;37186;51.394;5.454;2022-10-24T01:43:41;16.30;86.60
26821;DHT22;37186;51.394;5.454;2022-10-24T01:47:04;16.30;86.50
26821;DHT22;37186;51.394;5.454;2022-10-24T01:50:10;16.30;86.70
26821;DHT22;37186;51.394;5.454;2022-10-24T01:53:12;16.30;86.60
26821;DHT22;37186;51.394;5.454;2022-10-24T01:56:12;16.30;86.60
26821;DHT22;37186;51.394;5.454;2022-10-24T02:02:38;16.30;86.40
26821;DHT22;37186;51.394;5.454;2022-10-24T02:05:47;16.30;86.50
26821;DHT22;37186;51.394;5.454;2022-10-24T02:08:54;16.20;86.50
26821;DHT22;37186;51.394;5.454;2022-10-24T02:11:56;16.20;86.50
26821;DHT22;37186;51.394;5.454;2022-10-24T02:15:06;16.20;86.40
26821;DHT22;37186;51.394;5.454;2022-10-24T02:18:07;16.20;86.40
26821;DHT22;37186;51.394;5.454;2022-10-24T02:24:28;16.20;86.40
26821;DHT22;37186;51.394;5.454;2022-10-24T02:27:37;16.20;86.50
26821;DHT22;37186;51.394;5.454;2022-10-24T02:30:41;16.20;86.40
26821;DHT22;37186;51.394;5.454;2022-10-24T02:33:45;16.20;86.50
26821;DHT22;37186;51.394;5.454;2022-10-24T02:36:48;16.20;86.50
26821;DHT22;37186;51.394;5.454;2022-10-24T02:39:51;16.20;86.50
26821;DHT22;37186;51.394;5.454;2022-10-24T02:42:54;16.20;86.50
26821;DHT22;37186;51.394;5.454;2022-10-24T02:45:58;16.10;86.50
26821;DHT22;37186;51.394;5.454;2022-10-24T02:49:01;16.10;86.50
26821;DHT22;37186;51.394;5.454;2022-10-24T02:52:03;16.10;86.50
26821;DHT22;37186;51.394;5.454;2022-10-24T02:55:04;16.10;86.40
26821;DHT22;37186;51.394;5.454;2022-10-24T02:58:05;16.20;86.60
26821;DHT22;37186;51.394;5.454;2022-10-24T03:01:06;16.20;86.60
26821;DHT22;37186;51.394;5.454;2022-10-24T03:04:06;16.20;86.50
26821;DHT22;37186;51.394;5.454;2022-10-24T03:07:07;16.20;86.50
26821;DHT22;37186;51.394;5.454;2022-10-24T03:10:07;16.20;86.50
26821;DHT22;37186;51.394;5.454;2022-10-24T03:13:08;16.20;86.30
26821;DHT22;37186;51.394;5.454;2022-10-24T03:16:09;16.20;86.30
26821;DHT22;37186;51.394;5.454;2022-10-24T03:19:09;16.10;86.40
26821;DHT22;37186;51.394;5.454;2022-10-24T03:22:10;16.20;86.40
26821;DHT22;37186;51.394;5.454;2022-10-24T03:25:10;16.20;86.40
26821;DHT22;37186;51.394;5.454;2022-10-24T03:28:11;16.20;86.40
26821;DHT22;37186;51.394;5.454;2022-10-24T03:31:12;16.20;86.40
26821;DHT22;37186;51.394;5.454;2022-10-24T03:34:12;16.20;86.40
26821;DHT22;37186;51.394;5.454;2022-10-24T03:37:13;16.20;86.40
26821;DHT22;37186;51.394;5.454;2022-10-24T03:40:13;16.20;86.40
26821;DHT22;37186;51.394;5.454;2022-10-24T03:43:14;16.20;86.30
26821;DHT22;37186;51.394;5.454;2022-10-24T03:46:14;16.20;86.30
26821;DHT22;37186;51.394;5.454;2022-10-24T03:49:15;16.20;86.30
26821;DHT22;37186;51.394;5.454;2022-10-24T03:52:16;16.20;86.40
26821;DHT22;37186;51.394;5.454;2022-10-24T03:55:16;16.20;86.30
26821;DHT22;37186;51.394;5.454;2022-10-24T03:58:17;16.20;86.30
26821;DHT22;37186;51.394;5.454;2022-10-24T04:01:17;16.20;86.30
26821;DHT22;37186;51.394;5.454;2022-10-24T04:04:18;16.20;86.30
26821;DHT22;37186;51.394;5.454;2022-10-24T04:07:19;16.20;86.20
26821;DHT22;37186;51.394;5.454;2022-10-24T04:10:19;16.20;86.20
26821;DHT22;37186;51.394;5.454;2022-10-24T04:13:20;16.20;86.20
26821;DHT22;37186;51.394;5.454;2022-10-24T04:16:20;16.30;86.30
26821;DHT22;37186;51.394;5.454;2022-10-24T04:19:23;16.20;86.20
26821;DHT22;37186;51.394;5.454;2022-10-24T04:22:23;16.20;86.20
26821;DHT22;37186;51.394;5.454;2022-10-24T04:25:24;16.20;86.20
26821;DHT22;37186;51.394;5.454;2022-10-24T04:28:24;16.30;86.20
26821;DHT22;37186;51.394;5.454;2022-10-24T04:31:26;16.20;86.20
26821;DHT22;37186;51.394;5.454;2022-10-24T04:34:27;16.30;86.20
26821;DHT22;37186;51.394;5.454;2022-10-24T04:37:27;16.30;86.20
26821;DHT22;37186;51.394;5.454;2022-10-24T04:40:28;16.30;86.20
26821;DHT22;37186;51.394;5.454;2022-10-24T04:43:28;16.30;86.10
26821;DHT22;37186;51.394;5.454;2022-10-24T04:46:29;16.30;86.10
26821;DHT22;37186;51.394;5.454;2022-10-24T04:49:29;16.30;86.10
26821;DHT22;37186;51.394;5.454;2022-10-24T04:52:30;16.30;86.10
26821;DHT22;37186;51.394;5.454;2022-10-24T04:55:31;16.30;86.10
26821;DHT22;37186;51.394;5.454;2022-10-24T04:58:31;16.30;86.10
26821;DHT22;37186;51.394;5.454;2022-10-24T05:01:32;16.30;86.10
26821;DHT22;37186;51.394;5.454;2022-10-24T05:04:33;16.30;86.20
26821;DHT22;37186;51.394;5.454;2022-10-24T05:07:33;16.30;86.20
26821;DHT22;37186;51.394;5.454;2022-10-24T05:10:34;16.30;86.20
26821;DHT22;37186;51.394;5.454;2022-10-24T05:13:34;16.30;86.10
26821;DHT22;37186;51.394;5.454;2022-10-24T05:16:35;16.30;86.10
26821;DHT22;37186;51.394;5.454;2022-10-24T05:19:35;16.30;86.00
26821;DHT22;37186;51.394;5.454;2022-10-24T05:22:36;16.30;86.00
26821;DHT22;37186;51.394;5.454;2022-10-24T05:25:37;16.30;86.10
26821;DHT22;37186;51.394;5.454;2022-10-24T05:28:38;16.40;86.10
26821;DHT22;37186;51.394;5.454;2022-10-24T05:31:38;16.40;86.00
26821;DHT22;37186;51.394;5.454;2022-10-24T05:34:39;16.40;85.90
26821;DHT22;37186;51.394;5.454;2022-10-24T05:37:39;16.40;86.00
26821;DHT22;37186;51.394;5.454;2022-10-24T05:40:40;16.40;86.00
26821;DHT22;37186;51.394;5.454;2022-10-24T05:43:41;16.40;86.00
26821;DHT22;37186;51.394;5.454;2022-10-24T05:46:41;16.40;86.00
26821;DHT22;37186;51.394;5.454;2022-10-24T05:49:42;16.40;86.80
26821;DHT22;37186;51.394;5.454;2022-10-24T05:52:42;16.40;86.00
26821;DHT22;37186;51.394;5.454;2022-10-24T05:55:43;16.40;86.00
26821;DHT22;37186;51.394;5.454;2022-10-24T05:58:44;16.40;85.90
26821;DHT22;37186;51.394;5.454;2022-10-24T06:01:44;16.40;86.00
26821;DHT22;37186;51.394;5.454;2022-10-24T06:04:45;16.50;86.00
26821;DHT22;37186;51.394;5.454;2022-10-24T06:07:46;16.50;86.20
26821;DHT22;37186;51.394;5.454;2022-10-24T06:10:48;16.50;85.90
26821;DHT22;37186;51.394;5.454;2022-10-24T06:13:49;16.50;85.90
26821;DHT22;37186;51.394;5.454;2022-10-24T06:16:49;16.50;85.90
26821;DHT22;37186;51.394;5.454;2022-10-24T06:19:50;16.50;85.80
26821;DHT22;37186;51.394;5.454;2022-10-24T06:22:50;16.50;85.70
26821;DHT22;37186;51.394;5.454;2022-10-24T06:25:51;16.50;85.70
26821;DHT22;37186;51.394;5.454;2022-10-24T06:28:51;16.50;85.70
26821;DHT22;37186;51.394;5.454;2022-10-24T06:31:53;16.50;85.60
26821;DHT22;37186;51.394;5.454;2022-10-24T06:34:54;16.50;85.70
26821;DHT22;37186;51.394;5.454;2022-10-24T06:37:55;16.50;85.70
26821;DHT22;37186;51.394;5.454;2022-10-24T06:40:55;16.50;85.70
26821;DHT22;37186;51.394;5.454;2022-10-24T06:43:56;16.50;85.70
26821;DHT22;37186;51.394;5.454;2022-10-24T06:46:56;16.50;85.70
26821;DHT22;37186;51.394;5.454;2022-10-24T06:49:57;16.50;85.30
26821;DHT22;37186;51.394;5.454;2022-10-24T06:52:57;16.50;85.50
26821;DHT22;37186;51.394;5.454;2022-10-24T06:56:02;16.50;85.60
26821;DHT22;37186;51.394;5.454;2022-10-24T06:59:14;16.50;85.60
26821;DHT22;37186;51.394;5.454;2022-10-24T07:02:15;16.50;85.60
26821;DHT22;37186;51.394;5.454;2022-10-24T07:05:16;16.50;85.70
26821;DHT22;37186;51.394;5.454;2022-10-24T07:08:16;16.50;85.70
26821;DHT22;37186;51.394;5.454;2022-10-24T07:11:17;16.60;85.70
26821;DHT22;37186;51.394;5.454;2022-10-24T07:14:18;16.60;85.80
26821;DHT22;37186;51.394;5.454;2022-10-24T07:17:19;16.60;85.70
26821;DHT22;37186;51.394;5.454;2022-10-24T07:20:20;16.60;85.70
26821;DHT22;37186;51.394;5.454;2022-10-24T07:23:20;16.60;85.70
26821;DHT22;37186;51.394;5.454;2022-10-24T07:26:22;16.60;85.70
26821;DHT22;37186;51.394;5.454;2022-10-24T07:29:23;16.60;86.50
26821;DHT22;37186;51.394;5.454;2022-10-24T07:32:23;16.60;85.70
26821;DHT22;37186;51.394;5.454;2022-10-24T07:35:24;16.60;85.70
26821;DHT22;37186;51.394;5.454;2022-10-24T07:38:25;16.70;85.70
26821;DHT22;37186;51.394;5.454;2022-10-24T07:41:27;16.60;85.60
26821;DHT22;37186;51.394;5.454;2022-10-24T07:44:28;16.60;85.50
26821;DHT22;37186;51.394;5.454;2022-10-24T07:47:29;16.70;85.60
26821;DHT22;37186;51.394;5.454;2022-10-24T07:50:30;16.70;85.50
26821;DHT22;37186;51.394;5.454;2022-10-24T07:53:30;16.70;85.50
26821;DHT22;37186;51.394;5.454;2022-10-24T07:56:31;16.70;85.50
26821;DHT22;37186;51.394;5.454;2022-10-24T07:59:32;16.80;86.50
26821;DHT22;37186;51.394;5.454;2022-10-24T08:02:32;16.70;85.60
26821;DHT22;37186;51.394;5.454;2022-10-24T08:05:33;16.70;85.70
26821;DHT22;37186;51.394;5.454;2022-10-24T08:08:33;16.70;85.70
26821;DHT22;37186;51.394;5.454;2022-10-24T08:11:34;16.80;85.80
26821;DHT22;37186;51.394;5.454;2022-10-24T08:14:36;16.80;85.70
26821;DHT22;37186;51.394;5.454;2022-10-24T08:17:37;16.80;85.80
26821;DHT22;37186;51.394;5.454;2022-10-24T08:20:38;16.90;85.90
26821;DHT22;37186;51.394;5.454;2022-10-24T08:23:42;16.90;85.70
26821;DHT22;37186;51.394;5.454;2022-10-24T08:26:43;16.90;85.70
26821;DHT22;37186;51.394;5.454;2022-10-24T08:29:43;16.90;85.50
26821;DHT22;37186;51.394;5.454;2022-10-24T08:32:44;16.90;85.50
26821;DHT22;37186;51.394;5.454;2022-10-24T08:35:45;16.90;85.60
26821;DHT22;37186;51.394;5.454;2022-10-24T08:38:45;16.90;85.50
26821;DHT22;37186;51.394;5.454;2022-10-24T08:41:50;16.90;85.50
26821;DHT22;37186;51.394;5.454;2022-10-24T08:44:54;16.90;85.50
26821;DHT22;37186;51.394;5.454;2022-10-24T08:48:06;16.90;85.30
26821;DHT22;37186;51.394;5.454;2022-10-24T08:51:33;17.00;85.20
26821;DHT22;37186;51.394;5.454;2022-10-24T08:54:39;17.00;85.40
26821;DHT22;37186;51.394;5.454;2022-10-24T08:57:44;17.00;85.40
26821;DHT22;37186;51.394;5.454;2022-10-24T09:00:49;17.00;85.50
26821;DHT22;37186;51.394;5.454;2022-10-24T09:03:51;17.10;85.40
26821;DHT22;37186;51.394;5.454;2022-10-24T09:06:53;17.00;85.40
26821;DHT22;37186;51.394;5.454;2022-10-24T09:13:37;17.10;85.50
26821;DHT22;37186;51.394;5.454;2022-10-24T09:16:40;17.10;85.40
26821;DHT22;37186;51.394;5.454;2022-10-24T09:19:52;17.10;85.40
26821;DHT22;37186;51.394;5.454;2022-10-24T09:22:57;17.10;85.40
26821;DHT22;37186;51.394;5.454;2022-10-24T09:25:59;17.10;85.40
26821;DHT22;37186;51.394;5.454;2022-10-24T09:28:59;17.10;85.20
26821;DHT22;37186;51.394;5.454;2022-10-24T09:32:01;17.10;85.40
26821;DHT22;37186;51.394;5.454;2022-10-24T09:35:10;17.20;85.40
26821;DHT22;37186;51.394;5.454;2022-10-24T09:38:33;17.20;85.50
26821;DHT22;37186;51.394;5.454;2022-10-24T09:41:34;17.20;85.40
26821;DHT22;37186;51.394;5.454;2022-10-24T09:44:39;17.20;85.40
26821;DHT22;37186;51.394;5.454;2022-10-24T09:47:43;17.30;85.50
26821;DHT22;37186;51.394;5.454;2022-10-24T09:50:45;17.30;85.50
26821;DHT22;37186;51.394;5.454;2022-10-24T09:57:17;17.30;85.30
26821;DHT22;37186;51.394;5.454;2022-10-24T10:00:27;17.40;85.50
26821;DHT22;37186;51.394;5.454;2022-10-24T10:03:28;17.40;85.50
26821;DHT22;37186;51.394;5.454;2022-10-24T10:06:30;17.40;85.60
26821;DHT22;37186;51.394;5.454;2022-10-24T10:09:32;17.40;85.60
26821;DHT22;37186;51.394;5.454;2022-10-24T10:12:39;17.40;85.60
26821;DHT22;37186;51.394;5.454;2022-10-24T10:18:45;17.50;85.40
26821;DHT22;37186;51.394;5.454;2022-10-24T10:21:56;17.50;85.50
26821;DHT22;37186;51.394;5.454;2022-10-24T10:24:58;17.50;85.40
26821;DHT22;37186;51.394;5.454;2022-10-24T10:27:59;17.60;85.50
26821;DHT22;37186;51.394;5.454;2022-10-24T10:31:00;17.60;85.30
26821;DHT22;37186;51.394;5.454;2022-10-24T10:34:22;17.60;85.00
26821;DHT22;37186;51.394;5.454;2022-10-24T10:37:34;17.60;85.00
26821;DHT22;37186;51.394;5.454;2022-10-24T10:40:39;17.60;85.00
26821;DHT22;37186;51.394;5.454;2022-10-24T10:50:54;17.60;84.40
26821;DHT22;37186;51.394;5.454;2022-10-24T10:57:21;17.50;83.60
26821;DHT22;37186;51.394;5.454;2022-10-24T11:03:58;17.60;84.00
26821;DHT22;37186;51.394;5.454;2022-10-24T11:10:45;17.60;84.30
26821;DHT22;37186;51.394;5.454;2022-10-24T11:14:03;17.60;84.30
26821;DHT22;37186;51.394;5.454;2022-10-24T11:17:26;17.70;84.20
26821;DHT22;37186;51.394;5.454;2022-10-24T11:20:51;17.70;84.30
26821;DHT22;37186;51.394;5.454;2022-10-24T11:24:03;17.80;84.10
26821;DHT22;37186;51.394;5.454;2022-10-24T11:27:14;17.80;84.20
26821;DHT22;37186;51.394;5.454;2022-10-24T11:30:28;17.80;83.90
26821;DHT22;37186;51.394;5.454;2022-10-24T11:33:56;17.90;83.70
26821;DHT22;37186;51.394;5.454;2022-10-24T11:37:08;17.90;83.80
26821;DHT22;37186;51.394;5.454;2022-10-24T11:40:16;18.00;84.20
26821;DHT22;37186;51.394;5.454;2022-10-24T11:43:34;18.00;83.80
26821;DHT22;37186;51.394;5.454;2022-10-24T11:46:41;18.00;83.60
26821;DHT22;37186;51.394;5.454;2022-10-24T11:49:47;18.00;83.50
26821;DHT22;37186;51.394;5.454;2022-10-24T11:53:03;18.10;83.60
26821;DHT22;37186;51.394;5.454;2022-10-24T11:56:31;18.10;83.70
26821;DHT22;37186;51.394;5.454;2022-10-24T11:59:33;18.10;84.00
26821;DHT22;37186;51.394;5.454;2022-10-24T12:19:16;18.40;83.50
26821;DHT22;37186;51.394;5.454;2022-10-24T12:22:21;18.40;83.70
26821;DHT22;37186;51.394;5.454;2022-10-24T12:25:37;18.40;83.70
26821;DHT22;37186;51.394;5.454;2022-10-24T12:28:38;18.50;83.90
26821;DHT22;37186;51.394;5.454;2022-10-24T12:31:39;18.50;83.50
26821;DHT22;37186;51.394;5.454;2022-10-24T12:34:42;18.50;83.30
26821;DHT22;37186;51.394;5.454;2022-10-24T12:37:43;18.50;83.70
26821;DHT22;37186;51.394;5.454;2022-10-24T12:44:23;18.60;83.60
26821;DHT22;37186;51.394;5.454;2022-10-24T12:54:41;18.60;83.70
26821;DHT22;37186;51.394;5.454;2022-10-24T12:57:44;18.50;83.80
26821;DHT22;37186;51.394;5.454;2022-10-24T13:01:38;18.50;83.80
26821;DHT22;37186;51.394;5.454;2022-10-24T13:17:59;18.50;83.40
26821;DHT22;37186;51.394;5.454;2022-10-24T13:24:32;18.50;83.60
26821;DHT22;37186;51.394;5.454;2022-10-24T13:27:34;18.60;83.40
26821;DHT22;37186;51.394;5.454;2022-10-24T13:30:34;18.60;83.40
26821;DHT22;37186;51.394;5.454;2022-10-24T13:33:40;18.60;83.30
26821;DHT22;37186;51.394;5.454;2022-10-24T13:36:41;18.60;83.00
26821;DHT22;37186;51.394;5.454;2022-10-24T13:39:51;18.60;83.50
26821;DHT22;37186;51.394;5.454;2022-10-24T13:42:57;18.60;83.50
26821;DHT22;37186;51.394;5.454;2022-10-24T13:46:05;18.60;83.50
26821;DHT22;37186;51.394;5.454;2022-10-24T13:49:18;18.70;83.20
26821;DHT22;37186;51.394;5.454;2022-10-24T13:55:34;18.70;83.20
26821;DHT22;37186;51.394;5.454;2022-10-24T13:58:37;18.70;83.40
26821;DHT22;37186;51.394;5.454;2022-10-24T14:01:39;18.80;83.30
26821;DHT22;37186;51.394;5.454;2022-10-24T14:04:45;18.70;82.90
26821;DHT22;37186;51.394;5.454;2022-10-24T14:07:46;18.80;83.20
26821;DHT22;37186;51.394;5.454;2022-10-24T14:10:48;18.80;83.10
26821;DHT22;37186;51.394;5.454;2022-10-24T14:13:54;18.80;82.90
26821;DHT22;37186;51.394;5.454;2022-10-24T14:17:27;18.80;83.20
26821;DHT22;37186;51.394;5.454;2022-10-24T14:20:31;18.80;83.00
26821;DHT22;37186;51.394;5.454;2022-10-24T14:23:37;18.80;82.90
26821;DHT22;37186;51.394;5.454;2022-10-24T14:26:39;18.80;83.00
26821;DHT22;37186;51.394;5.454;2022-10-24T14:29:55;18.80;83.10
26821;DHT22;37186;51.394;5.454;2022-10-24T14:36:16;18.80;82.90
26821;DHT22;37186;51.394;5.454;2022-10-24T14:39:20;18.70;82.90
26821;DHT22;37186;51.394;5.454;2022-10-24T14:42:23;18.80;82.70
26821;DHT22;37186;51.394;5.454;2022-10-24T14:45:29;18.70;82.80
26821;DHT22;37186;51.394;5.454;2022-10-24T14:48:30;18.70;82.90
26821;DHT22;37186;51.394;5.454;2022-10-24T14:51:32;18.70;82.90
26821;DHT22;37186;51.394;5.454;2022-10-24T14:54:37;18.70;83.10
26821;DHT22;37186;51.394;5.454;2022-10-24T14:57:38;18.70;83.00
26821;DHT22;37186;51.394;5.454;2022-10-24T15:00:38;18.70;83.00
26821;DHT22;37186;51.394;5.454;2022-10-24T15:03:59;18.70;82.90
26821;DHT22;37186;51.394;5.454;2022-10-24T15:07:25;18.70;83.10
26821;DHT22;37186;51.394;5.454;2022-10-24T15:10:35;18.70;82.90
26821;DHT22;37186;51.394;5.454;2022-10-24T15:13:44;18.70;83.20
26821;DHT22;37186;51.394;5.454;2022-10-24T15:16:45;18.70;83.10
26821;DHT22;37186;51.394;5.454;2022-10-24T15:19:47;18.60;83.00
26821;DHT22;37186;51.394;5.454;2022-10-24T15:22:50;18.60;83.10
26821;DHT22;37186;51.394;5.454;2022-10-24T15:26:01;18.60;83.20
26821;DHT22;37186;51.394;5.454;2022-10-24T15:32:04;18.60;83.20
26821;DHT22;37186;51.394;5.454;2022-10-24T15:35:05;18.60;83.20
26821;DHT22;37186;51.394;5.454;2022-10-24T15:38:13;18.60;83.20
26821;DHT22;37186;51.394;5.454;2022-10-24T15:41:15;18.60;83.20
26821;DHT22;37186;51.394;5.454;2022-10-24T15:44:24;18.60;83.20
26821;DHT22;37186;51.394;5.454;2022-10-24T15:47:25;18.50;83.10
26821;DHT22;37186;51.394;5.454;2022-10-24T15:50:26;18.50;83.20
26821;DHT22;37186;51.394;5.454;2022-10-24T15:53:26;18.50;83.20
26821;DHT22;37186;51.394;5.454;2022-10-24T15:56:27;18.50;83.20
26821;DHT22;37186;51.394;5.454;2022-10-24T15:59:27;18.40;83.00
26821;DHT22;37186;51.394;5.454;2022-10-24T16:02:28;18.40;83.00
26821;DHT22;37186;51.394;5.454;2022-10-24T16:05:36;18.40;83.00
26821;DHT22;37186;51.394;5.454;2022-10-24T16:08:37;18.40;83.00
26821;DHT22;37186;51.394;5.454;2022-10-24T16:11:37;18.30;83.00
26821;DHT22;37186;51.394;5.454;2022-10-24T16:14:38;18.30;83.20
26821;DHT22;37186;51.394;5.454;2022-10-24T16:17:39;18.30;83.10
26821;DHT22;37186;51.394;5.454;2022-10-24T16:20:40;18.30;83.10
26821;DHT22;37186;51.394;5.454;2022-10-24T16:23:40;18.30;83.10
26821;DHT22;37186;51.394;5.454;2022-10-24T16:26:41;18.20;83.10
26821;DHT22;37186;51.394;5.454;2022-10-24T16:29:42;18.20;83.10
26821;DHT22;37186;51.394;5.454;2022-10-24T16:32:42;18.20;83.10
26821;DHT22;37186;51.394;5.454;2022-10-24T16:35:43;18.20;83.10
26821;DHT22;37186;51.394;5.454;2022-10-24T16:38:44;18.20;83.20
26821;DHT22;37186;51.394;5.454;2022-10-24T16:41:45;18.20;83.20
26821;DHT22;37186;51.394;5.454;2022-10-24T16:44:46;18.10;83.10
26821;DHT22;37186;51.394;5.454;2022-10-24T16:47:47;18.10;83.20
26821;DHT22;37186;51.394;5.454;2022-10-24T16:50:49;18.10;83.20
26821;DHT22;37186;51.394;5.454;2022-10-24T16:53:49;18.10;83.20
26821;DHT22;37186;51.394;5.454;2022-10-24T16:56:50;18.10;83.00
26821;DHT22;37186;51.394;5.454;2022-10-24T16:59:51;18.10;83.10
26821;DHT22;37186;51.394;5.454;2022-10-24T17:02:53;18.10;83.10
26821;DHT22;37186;51.394;5.454;2022-10-24T17:05:54;18.00;83.00
26821;DHT22;37186;51.394;5.454;2022-10-24T17:08:55;18.00;83.00
26821;DHT22;37186;51.394;5.454;2022-10-24T17:11:55;17.90;83.00
26821;DHT22;37186;51.394;5.454;2022-10-24T17:14:59;17.90;83.00
26821;DHT22;37186;51.394;5.454;2022-10-24T17:18:00;17.90;83.00
26821;DHT22;37186;51.394;5.454;2022-10-24T17:21:01;17.80;83.00
26821;DHT22;37186;51.394;5.454;2022-10-24T17:24:02;17.80;82.90
26821;DHT22;37186;51.394;5.454;2022-10-24T17:27:02;17.80;83.00
26821;DHT22;37186;51.394;5.454;2022-10-24T17:30:03;17.70;82.90
26821;DHT22;37186;51.394;5.454;2022-10-24T17:33:04;17.70;82.90
26821;DHT22;37186;51.394;5.454;2022-10-24T17:36:12;17.70;83.00
26821;DHT22;37186;51.394;5.454;2022-10-24T17:39:24;17.60;83.00
26821;DHT22;37186;51.394;5.454;2022-10-24T17:42:25;17.60;83.00
26821;DHT22;37186;51.394;5.454;2022-10-24T17:45:25;17.60;83.00
26821;DHT22;37186;51.394;5.454;2022-10-24T17:48:26;17.50;83.00
26821;DHT22;37186;51.394;5.454;2022-10-24T17:51:26;17.50;83.10
26821;DHT22;37186;51.394;5.454;2022-10-24T17:54:27;17.50;83.10
26821;DHT22;37186;51.394;5.454;2022-10-24T17:57:27;17.50;83.10
26821;DHT22;37186;51.394;5.454;2022-10-24T18:00:29;17.50;83.20
26821;DHT22;37186;51.394;5.454;2022-10-24T18:03:29;17.50;83.30
26821;DHT22;37186;51.394;5.454;2022-10-24T18:06:30;17.40;83.20
26821;DHT22;37186;51.394;5.454;2022-10-24T18:09:31;17.40;83.20
26821;DHT22;37186;51.394;5.454;2022-10-24T18:12:32;17.40;83.20
26821;DHT22;37186;51.394;5.454;2022-10-24T18:15:37;17.40;83.30
26821;DHT22;37186;51.394;5.454;2022-10-24T18:18:38;17.40;83.30
26821;DHT22;37186;51.394;5.454;2022-10-24T18:21:39;17.40;83.50
26821;DHT22;37186;51.394;5.454;2022-10-24T18:24:39;17.30;83.30
26821;DHT22;37186;51.394;5.454;2022-10-24T18:27:40;17.40;83.40
26821;DHT22;37186;51.394;5.454;2022-10-24T18:30:41;17.30;83.40
26821;DHT22;37186;51.394;5.454;2022-10-24T18:33:42;17.30;83.40
26821;DHT22;37186;51.394;5.454;2022-10-24T18:36:42;17.30;83.40
26821;DHT22;37186;51.394;5.454;2022-10-24T18:39:43;17.30;83.50
26821;DHT22;37186;51.394;5.454;2022-10-24T18:42:56;17.30;83.40
26821;DHT22;37186;51.394;5.454;2022-10-24T18:45:58;17.20;83.50
26821;DHT22;37186;51.394;5.454;2022-10-24T18:48:58;17.30;83.50
26821;DHT22;37186;51.394;5.454;2022-10-24T18:55:20;17.20;83.40
26821;DHT22;37186;51.394;5.454;2022-10-24T18:58:21;17.20;83.50
26821;DHT22;37186;51.394;5.454;2022-10-24T19:01:31;17.20;83.50
26821;DHT22;37186;51.394;5.454;2022-10-24T19:04:33;17.20;83.50
26821;DHT22;37186;51.394;5.454;2022-10-24T19:07:35;17.20;83.50
26821;DHT22;37186;51.394;5.454;2022-10-24T19:10:36;17.10;83.50
26821;DHT22;37186;51.394;5.454;2022-10-24T19:13:36;17.10;83.50
26821;DHT22;37186;51.394;5.454;2022-10-24T19:16:37;17.10;83.50
26821;DHT22;37186;51.394;5.454;2022-10-24T19:19:37;17.10;83.50
26821;DHT22;37186;51.394;5.454;2022-10-24T19:22:38;17.10;83.70
26821;DHT22;37186;51.394;5.454;2022-10-24T19:25:39;17.10;83.70
26821;DHT22;37186;51.394;5.454;2022-10-24T19:28:40;17.00;83.50
26821;DHT22;37186;51.394;5.454;2022-10-24T19:31:40;17.10;83.80
26821;DHT22;37186;51.394;5.454;2022-10-24T19:34:41;17.10;83.70
26821;DHT22;37186;51.394;5.454;2022-10-24T19:37:42;17.00;83.60
26821;DHT22;37186;51.394;5.454;2022-10-24T19:40:49;17.00;83.60
26821;DHT22;37186;51.394;5.454;2022-10-24T19:43:51;17.00;83.60
26821;DHT22;37186;51.394;5.454;2022-10-24T19:46:51;17.00;83.60
26821;DHT22;37186;51.394;5.454;2022-10-24T19:49:52;17.00;83.50
26821;DHT22;37186;51.394;5.454;2022-10-24T19:52:52;17.00;83.60
26821;DHT22;37186;51.394;5.454;2022-10-24T19:55:53;16.90;83.50
26821;DHT22;37186;51.394;5.454;2022-10-24T19:58:54;16.90;83.50
26821;DHT22;37186;51.394;5.454;2022-10-24T20:01:55;16.90;83.60
26821;DHT22;37186;51.394;5.454;2022-10-24T20:04:55;16.90;83.50
26821;DHT22;37186;51.394;5.454;2022-10-24T20:07:56;16.80;83.50
26821;DHT22;37186;51.394;5.454;2022-10-24T20:10:57;16.80;83.50
26821;DHT22;37186;51.394;5.454;2022-10-24T20:13:58;16.80;83.50
26821;DHT22;37186;51.394;5.454;2022-10-24T20:16:59;16.80;83.60
26821;DHT22;37186;51.394;5.454;2022-10-24T20:19:59;16.70;83.50
26821;DHT22;37186;51.394;5.454;2022-10-24T20:23:00;16.70;83.50
26821;DHT22;37186;51.394;5.454;2022-10-24T20:26:04;16.70;83.50
26821;DHT22;37186;51.394;5.454;2022-10-24T20:29:05;16.70;83.50
26821;DHT22;37186;51.394;5.454;2022-10-24T20:32:05;16.70;83.60
26821;DHT22;37186;51.394;5.454;2022-10-24T20:35:06;16.70;83.60
26821;DHT22;37186;51.394;5.454;2022-10-24T20:38:07;16.60;83.60
26821;DHT22;37186;51.394;5.454;2022-10-24T20:41:08;16.60;83.60
26821;DHT22;37186;51.394;5.454;2022-10-24T20:44:10;16.60;83.70
26821;DHT22;37186;51.394;5.454;2022-10-24T20:47:10;16.60;83.60
26821;DHT22;37186;51.394;5.454;2022-10-24T20:50:11;16.60;83.70
26821;DHT22;37186;51.394;5.454;2022-10-24T20:53:11;16.60;83.60
26821;DHT22;37186;51.394;5.454;2022-10-24T20:56:15;16.50;83.60
26821;DHT22;37186;51.394;5.454;2022-10-24T20:59:16;16.50;83.60